Private Wetterstation Wechselburg
Wetterdaten: Woche 11.11.13 - 17.11.13 (KW46)
Datum Zeit Temp. +2m Bodentemp. Temp.+5cm Temp. Wind Windchill X Diff Temp. Feuchte +2m Feuchte +5cm Sonnenschein Luftdruck Regen Wind Richtung Sonnenschein UV Taupunkt Windchill Windben
11.11.2013 00:00 2,0 C 17,4 C 2,5 C 1,8 C 1,5 C 0,0 C 88 % 87 % 0 % 1019,9 hPa 0,0 l/m 2,5 km/h (1 Bft) SW 0,00 h 0,0 UV-I 0,2 C 1,5 C 3,7 km/h (1 Bft)
11.11.2013 01:00 2,4 C 17,2 C 3,3 C 2,2 C 1,6 C 0,0 C 87 % 87 % 0 % 1020,8 hPa 0,0 l/m 4,7 km/h (1 Bft) SW 0,00 h 0,0 UV-I 0,6 C 0,5 C 6,0 km/h (2 Bft)
11.11.2013 02:00 3,0 C 17,2 C 3,9 C 3,1 C 2,9 C 0,1 C 87 % 86 % 0 % 1021,6 hPa 0,0 l/m 3,7 km/h (1 Bft) SW 0,00 h 0,0 UV-I 1,1 C 2,7 C 4,9 km/h (1 Bft)
11.11.2013 03:00 3,7 C 17,1 C 4,4 C 3,9 C 3,8 C 0,2 C 87 % 86 % 0 % 1022,1 hPa 0,0 l/m 3,7 km/h (1 Bft) W-SW 0,00 h 0,0 UV-I 1,7 C 3,8 C 5,4 km/h (1 Bft)
11.11.2013 04:00 4,1 C 17,0 C 4,7 C 4,0 C 3,8 C 0,1 C 87 % 86 % 0 % 1023,2 hPa 0,0 l/m 3,9 km/h (1 Bft) W-SW 0,00 h 0,0 UV-I 2,0 C 3,6 C 4,1 km/h (1 Bft)
11.11.2013 05:00 4,0 C 17,2 C 4,8 C 4,3 C 4,3 C 0,3 C 87 % 87 % 0 % 1024,4 hPa 0,0 l/m 0,7 km/h (0 Bft) SW 0,00 h 0,0 UV-I 2,1 C 4,3 C 1,0 km/h (0 Bft)
11.11.2013 06:00 3,9 C 17,1 C 4,9 C 4,3 C 4,3 C 0,4 C 88 % 88 % 0 % 1025,3 hPa 0,7 l/m 2,1 km/h (1 Bft) W-SW 0,00 h 0,0 UV-I 2,1 C 4,3 C 3,0 km/h (1 Bft)
11.11.2013 07:00 4,1 C 16,9 C 5,1 C 4,3 C 4,3 C 0,3 C 88 % 89 % 1 % 1026,0 hPa 0,0 l/m 3,1 km/h (1 Bft) W-SW 0,00 h 0,0 UV-I 2,3 C 4,3 C 3,7 km/h (1 Bft)
11.11.2013 08:00 4,5 C 16,9 C 5,4 C 4,8 C 4,8 C 0,3 C 88 % 89 % 9 % 1026,8 hPa 0,0 l/m 2,8 km/h (1 Bft) W-SW 0,00 h 0,0 UV-I 2,6 C 4,8 C 3,2 km/h (1 Bft)
11.11.2013 09:00 5,0 C 16,8 C 5,9 C 6,0 C 6,0 C 1,0 C 87 % 89 % 25 % 1028,1 hPa 0,0 l/m 2,0 km/h (1 Bft) W 0,00 h 0,0 UV-I 3,0 C 6,0 C 3,4 km/h (1 Bft)
11.11.2013 10:00 5,5 C 16,8 C 6,6 C 7,0 C 7,0 C 1,5 C 85 % 89 % 40 % 1028,7 hPa 0,0 l/m 2,9 km/h (1 Bft) W 0,00 h 0,0 UV-I 3,2 C 7,0 C 3,9 km/h (1 Bft)
11.11.2013 11:00 6,2 C 16,9 C 7,4 C 7,9 C 7,9 C 1,7 C 84 % 88 % 44 % 1029,5 hPa 0,0 l/m 3,7 km/h (1 Bft) SW 0,00 h 0,0 UV-I 3,7 C 7,9 C 5,6 km/h (1 Bft)
11.11.2013 12:00 6,9 C 16,8 C 8,0 C 8,7 C 8,7 C 1,7 C 82 % 87 % 45 % 1029,6 hPa 0,0 l/m 3,4 km/h (1 Bft) W-SW 0,00 h 0,0 UV-I 4,0 C 8,7 C 4,7 km/h (1 Bft)
11.11.2013 13:00 7,3 C 16,8 C 7,9 C 8,4 C 8,4 C 1,2 C 78 % 86 % 31 % 1030,2 hPa 0,0 l/m 2,8 km/h (1 Bft) SW 0,00 h 0,0 UV-I 3,8 C 8,4 C 3,2 km/h (1 Bft)
11.11.2013 14:00 7,7 C 16,7 C 8,0 C 8,9 C 8,9 C 1,3 C 75 % 84 % 34 % 1030,3 hPa 0,0 l/m 2,1 km/h (1 Bft) SW 0,00 h 0,0 UV-I 3,5 C 8,9 C 2,5 km/h (1 Bft)
11.11.2013 15:00 7,2 C 16,9 C 7,2 C 7,4 C 7,3 C 0,2 C 78 % 85 % 5 % 1031,1 hPa 0,0 l/m 1,0 km/h (0 Bft) SW 0,00 h 0,0 UV-I 3,6 C 7,3 C 1,3 km/h (1 Bft)
11.11.2013 16:00 5,7 C 17,0 C 4,9 C 5,1 C 4,0 C 0,0 C 81 % 86 % 0 % 1031,4 hPa 0,0 l/m 0,0 km/h (0 Bft) N 0,00 h 0,0 UV-I 2,6 C 4,0 C 0,0 km/h (0 Bft)
11.11.2013 17:00 3,6 C 17,1 C 4,0 C 3,4 C 2,9 C 0,0 C 85 % 87 % 0 % 1032,0 hPa 0,0 l/m 0,0 km/h (0 Bft) N 0,00 h 0,0 UV-I 1,4 C 2,9 C 0,0 km/h (0 Bft)
11.11.2013 18:00 2,9 C 17,2 C 3,6 C 2,7 C 2,4 C 0,0 C 87 % 87 % 0 % 1032,1 hPa 0,0 l/m 0,0 km/h (0 Bft) N 0,00 h 0,0 UV-I 0,9 C 2,4 C 0,0 km/h (0 Bft)
11.11.2013 19:00 1,6 C 17,2 C 2,1 C 1,3 C 0,7 C 0,0 C 87 % 88 % 0 % 1032,5 hPa 0,0 l/m 0,1 km/h (0 Bft) N 0,00 h 0,0 UV-I -0,3 C 0,7 C 0,0 km/h (0 Bft)
11.11.2013 20:00 0,3 C 17,1 C 1,1 C 0,0 C -0,6 C 0,0 C 87 % 88 % 0 % 1032,5 hPa 0,0 l/m 0,0 km/h (0 Bft) N 0,00 h 0,0 UV-I -1,5 C -0,6 C 0,0 km/h (0 Bft)
11.11.2013 21:00 -0,8 C 17,1 C 0,3 C -1,1 C -1,8 C 0,0 C 88 % 88 % 0 % 1033,0 hPa 0,0 l/m 0,0 km/h (0 Bft) N 0,00 h 0,0 UV-I -2,6 C -1,8 C 0,0 km/h (0 Bft)
11.11.2013 22:00 -1,7 C 17,0 C -0,3 C -1,9 C -2,3 C 0,0 C 88 % 89 % 0 % 1033,2 hPa 0,0 l/m 0,0 km/h (0 Bft) N 0,00 h 0,0 UV-I -3,4 C -2,3 C 0,0 km/h (0 Bft)
11.11.2013 23:00 -2,3 C 16,9 C -0,8 C -2,5 C -2,9 C 0,0 C 89 % 89 % 0 % 1033,0 hPa 0,0 l/m 0,0 km/h (0 Bft) N 0,00 h 0,0 UV-I -3,9 C -2,9 C 0,0 km/h (0 Bft)
12.11.2013 00:00 -2,8 C 16,7 C -1,2 C -3,0 C -3,5 C 0,0 C 89 % 89 % 0 % 1032,8 hPa 0,0 l/m 0,0 km/h (0 Bft) N 0,00 h 0,0 UV-I -4,4 C -3,5 C 0,0 km/h (0 Bft)
12.11.2013 01:00 -3,1 C 16,6 C -1,6 C -3,3 C -3,6 C 0,0 C 89 % 89 % 0 % 1032,5 hPa 0,0 l/m 0,0 km/h (0 Bft) N 0,00 h 0,0 UV-I -4,7 C -3,6 C 0,0 km/h (0 Bft)
12.11.2013 02:00 -3,5 C 16,3 C -1,9 C -3,7 C -4,0 C 0,0 C 89 % 89 % 0 % 1032,4 hPa 0,0 l/m 0,0 km/h (0 Bft) N 0,00 h 0,0 UV-I -5,0 C -4,0 C 0,0 km/h (0 Bft)
12.11.2013 03:00 -3,7 C 16,2 C -2,2 C -3,8 C -4,2 C 0,0 C 90 % 89 % 0 % 1032,1 hPa 0,0 l/m 0,0 km/h (0 Bft) N 0,00 h 0,0 UV-I -5,1 C -4,2 C 0,0 km/h (0 Bft)
12.11.2013 04:00 -3,7 C 16,1 C -2,4 C -3,9 C -4,2 C 0,0 C 90 % 89 % 0 % 1031,7 hPa 0,0 l/m 0,0 km/h (0 Bft) N 0,00 h 0,0 UV-I -5,1 C -4,2 C 0,0 km/h (0 Bft)
12.11.2013 05:00 -4,0 C 15,9 C -2,5 C -4,2 C -4,5 C 0,0 C 90 % 89 % 0 % 1031,6 hPa 0,0 l/m 0,0 km/h (0 Bft) N 0,00 h 0,0 UV-I -5,4 C -4,5 C 0,0 km/h (0 Bft)
12.11.2013 06:00 -4,1 C 15,8 C -2,8 C -4,3 C -4,6 C 0,0 C 90 % 89 % 0 % 1031,1 hPa 0,0 l/m 0,0 km/h (0 Bft) N 0,00 h 0,0 UV-I -5,5 C -4,6 C 0,0 km/h (0 Bft)
12.11.2013 07:00 -4,3 C 15,7 C -2,9 C -4,5 C -4,8 C 0,0 C 90 % 89 % 0 % 1030,7 hPa 0,0 l/m 0,0 km/h (0 Bft) N 0,00 h 0,0 UV-I -5,8 C -4,8 C 0,0 km/h (0 Bft)
12.11.2013 08:00 -4,0 C 15,6 C -2,4 C -3,6 C -3,6 C 0,4 C 90 % 89 % 12 % 1030,2 hPa 0,0 l/m 0,0 km/h (0 Bft) N 0,00 h 0,0 UV-I -5,4 C -3,6 C 0,0 km/h (0 Bft)
12.11.2013 09:00 -2,7 C 15,4 C -1,1 C -1,6 C -1,6 C 1,2 C 91 % 89 % 31 % 1030,0 hPa 0,0 l/m 0,0 km/h (0 Bft) N 0,00 h 0,0 UV-I -4,0 C -1,6 C 0,0 km/h (0 Bft)
12.11.2013 10:00 -0,3 C 15,3 C 0,7 C 1,6 C 1,6 C 1,9 C 92 % 89 % 50 % 1029,8 hPa 0,0 l/m 0,3 km/h (0 Bft) N-NO 0,08 h 0,0 UV-I -1,4 C 1,6 C 0,6 km/h (0 Bft)
12.11.2013 11:00 1,8 C 15,1 C 2,4 C 6,4 C 6,4 C 4,6 C 92 % 89 % 96 % 1029,4 hPa 0,0 l/m 0,7 km/h (0 Bft) SW 1,00 h 0,0 UV-I 0,6 C 6,4 C 1,4 km/h (1 Bft)
12.11.2013 12:00 4,6 C 15,0 C 4,1 C 7,4 C 7,4 C 2,8 C 84 % 89 % 74 % 1028,7 hPa 0,0 l/m 3,1 km/h (1 Bft) S-SW 0,33 h 0,0 UV-I 2,1 C 7,4 C 3,0 km/h (1 Bft)
12.11.2013 13:00 6,7 C 15,1 C 5,9 C 9,2 C 9,2 C 2,5 C 76 % 89 % 65 % 1027,8 hPa 0,0 l/m 2,5 km/h (1 Bft) SW 0,00 h 0,0 UV-I 2,7 C 9,2 C 4,5 km/h (1 Bft)
12.11.2013 14:00 8,1 C 15,2 C 6,5 C 10,9 C 10,9 C 2,8 C 71 % 88 % 73 % 1027,4 hPa 0,0 l/m 1,5 km/h (1 Bft) SW 0,17 h 0,0 UV-I 3,1 C 10,9 C 2,5 km/h (1 Bft)
12.11.2013 15:00 7,4 C 15,4 C 6,0 C 9,2 C 9,2 C 1,8 C 68 % 86 % 48 % 1026,6 hPa 0,0 l/m 1,2 km/h (1 Bft) W-SW 0,33 h 0,0 UV-I 2,0 C 9,2 C 1,5 km/h (1 Bft)
12.11.2013 16:00 6,1 C 15,6 C 4,2 C 6,5 C 6,0 C 0,6 C 72 % 86 % 12 % 1026,4 hPa 0,0 l/m 0,0 km/h (0 Bft) N 0,25 h 0,0 UV-I 1,5 C 6,0 C 0,0 km/h (0 Bft)
12.11.2013 17:00 3,3 C 15,8 C 2,0 C 2,6 C 1,2 C 0,0 C 79 % 87 % 0 % 1026,1 hPa 0,0 l/m 0,0 km/h (0 Bft) N 0,00 h 0,0 UV-I 0,0 C 1,2 C 0,0 km/h (0 Bft)
12.11.2013 18:00 1,3 C 15,9 C 0,8 C 0,7 C -0,5 C 0,0 C 84 % 88 % 0 % 1026,3 hPa 0,0 l/m 0,0 km/h (0 Bft) N 0,00 h 0,0 UV-I -1,1 C -0,5 C 0,0 km/h (0 Bft)
12.11.2013 19:00 -0,2 C 16,0 C 0,0 C -0,6 C -1,3 C 0,0 C 86 % 88 % 0 % 1026,2 hPa 0,0 l/m 0,0 km/h (0 Bft) N 0,00 h 0,0 UV-I -2,3 C -1,3 C 0,0 km/h (0 Bft)
12.11.2013 20:00 -1,1 C 15,9 C 0,1 C -1,2 C -1,6 C 0,0 C 87 % 89 % 0 % 1026,2 hPa 0,0 l/m 0,0 km/h (0 Bft) N 0,00 h 0,0 UV-I -3,0 C -1,6 C 0,0 km/h (0 Bft)
12.11.2013 21:00 -0,9 C 15,9 C 0,5 C -0,6 C -0,6 C 0,3 C 88 % 89 % 0 % 1026,5 hPa 0,0 l/m 0,0 km/h (0 Bft) N 0,00 h 0,0 UV-I -2,6 C -0,6 C 0,0 km/h (0 Bft)
12.11.2013 22:00 0,2 C 15,7 C 1,4 C 0,8 C 0,8 C 0,6 C 89 % 89 % 0 % 1026,7 hPa 0,0 l/m 0,0 km/h (0 Bft) N 0,00 h 0,0 UV-I -1,4 C 0,8 C 0,0 km/h (0 Bft)
12.11.2013 23:00 1,2 C 15,6 C 2,2 C 1,6 C 1,6 C 0,5 C 89 % 89 % 0 % 1027,1 hPa 0,0 l/m 0,0 km/h (0 Bft) N 0,00 h 0,0 UV-I -0,5 C 1,6 C 0,0 km/h (0 Bft)
13.11.2013 00:00 2,0 C 15,5 C 2,9 C 2,5 C 2,5 C 0,5 C 88 % 89 % 0 % 1027,6 hPa 0,0 l/m 0,6 km/h (0 Bft) O-SO 0,00 h 0,0 UV-I 0,2 C 2,5 C 1,1 km/h (1 Bft)
13.11.2013 01:00 2,5 C 15,8 C 3,3 C 2,7 C 2,7 C 0,2 C 88 % 89 % 0 % 1027,9 hPa 0,7 l/m 0,1 km/h (0 Bft) N 0,00 h 0,0 UV-I 0,7 C 2,7 C 0,0 km/h (0 Bft)
13.11.2013 02:00 2,4 C 15,8 C 3,3 C 2,9 C 2,9 C 0,4 C 88 % 89 % 0 % 1027,9 hPa 0,7 l/m 0,1 km/h (0 Bft) N 0,00 h 0,0 UV-I 0,7 C 2,9 C 0,0 km/h (0 Bft)
13.11.2013 03:00 2,5 C 15,8 C 3,6 C 3,2 C 3,2 C 0,7 C 89 % 90 % 0 % 1027,9 hPa 0,0 l/m 0,2 km/h (0 Bft) N 0,00 h 0,0 UV-I 0,9 C 3,2 C 0,2 km/h (0 Bft)
13.11.2013 04:00 2,7 C 15,9 C 3,8 C 3,5 C 3,5 C 0,8 C 89 % 90 % 0 % 1028,4 hPa 0,7 l/m 0,4 km/h (0 Bft) SW 0,00 h 0,0 UV-I 1,1 C 3,5 C 0,8 km/h (0 Bft)
13.11.2013 05:00 2,9 C 15,9 C 4,0 C 3,8 C 3,8 C 0,8 C 90 % 90 % 0 % 1028,4 hPa 0,0 l/m 0,3 km/h (0 Bft) W-SW 0,00 h 0,0 UV-I 1,4 C 3,8 C 0,0 km/h (0 Bft)
13.11.2013 06:00 3,1 C 15,9 C 4,2 C 4,0 C 4,0 C 0,9 C 90 % 90 % 0 % 1028,8 hPa 0,0 l/m 0,8 km/h (0 Bft) SW 0,00 h 0,0 UV-I 1,7 C 4,0 C 1,3 km/h (1 Bft)
13.11.2013 07:00 3,5 C 15,9 C 4,6 C 4,5 C 4,5 C 1,0 C 91 % 91 % 11 % 1029,4 hPa 0,0 l/m 0,5 km/h (0 Bft) N 0,42 h 0,0 UV-I 2,2 C 4,5 C 0,3 km/h (0 Bft)
13.11.2013 08:00 3,9 C 15,9 C 5,0 C 5,1 C 5,1 C 1,1 C 91 % 91 % 29 % 1029,5 hPa 0,0 l/m 0,2 km/h (0 Bft) N 0,33 h 0,0 UV-I 2,6 C 5,1 C 0,2 km/h (0 Bft)
13.11.2013 09:00 4,6 C 15,9 C 5,6 C 5,8 C 5,8 C 1,3 C 91 % 91 % 34 % 1030,2 hPa 0,0 l/m 0,4 km/h (0 Bft) N 0,00 h 0,0 UV-I 3,3 C 5,8 C 0,6 km/h (0 Bft)
13.11.2013 10:00 5,2 C 16,0 C 6,2 C 6,5 C 6,5 C 1,3 C 92 % 91 % 33 % 1031,1 hPa 0,0 l/m 0,7 km/h (0 Bft) S 0,00 h 0,0 UV-I 4,0 C 6,5 C 1,5 km/h (1 Bft)
13.11.2013 11:00 5,8 C 16,0 C 7,1 C 7,6 C 7,6 C 1,8 C 92 % 90 % 46 % 1031,3 hPa 0,0 l/m 0,8 km/h (0 Bft) S-SW 0,00 h 0,0 UV-I 4,6 C 7,6 C 1,2 km/h (1 Bft)
13.11.2013 12:00 6,4 C 15,9 C 7,6 C 8,9 C 8,9 C 2,5 C 91 % 90 % 67 % 1031,3 hPa 0,0 l/m 1,1 km/h (0 Bft) SW 0,25 h 0,0 UV-I 5,1 C 8,9 C 2,4 km/h (1 Bft)
13.11.2013 13:00 6,9 C 15,8 C 7,6 C 9,6 C 9,6 C 2,7 C 89 % 90 % 70 % 1031,0 hPa 0,0 l/m 1,6 km/h (1 Bft) W-SW 0,17 h 0,0 UV-I 5,2 C 9,6 C 2,4 km/h (1 Bft)
13.11.2013 14:00 8,1 C 15,8 C 7,8 C 10,8 C 10,8 C 2,7 C 85 % 90 % 70 % 1030,9 hPa 0,0 l/m 3,6 km/h (1 Bft) W-SW 0,00 h 0,0 UV-I 5,6 C 10,8 C 4,2 km/h (1 Bft)
13.11.2013 15:00 8,1 C 15,9 C 8,0 C 9,6 C 9,6 C 1,5 C 83 % 89 % 41 % 1030,9 hPa 0,0 l/m 2,6 km/h (1 Bft) W-SW 0,33 h 0,0 UV-I 5,3 C 9,6 C 3,1 km/h (1 Bft)
13.11.2013 16:00 6,5 C 16,2 C 6,0 C 6,3 C 5,8 C 0,0 C 84 % 89 % 0 % 1030,6 hPa 0,0 l/m 0,1 km/h (0 Bft) N 0,00 h 0,0 UV-I 4,0 C 5,8 C 0,0 km/h (0 Bft)
13.11.2013 17:00 4,8 C 16,4 C 4,6 C 4,6 C 4,1 C 0,0 C 86 % 89 % 0 % 1030,9 hPa 0,0 l/m 0,0 km/h (0 Bft) N 0,00 h 0,0 UV-I 2,7 C 4,1 C 0,0 km/h (0 Bft)
13.11.2013 18:00 2,8 C 16,5 C 2,8 C 2,5 C 1,9 C 0,0 C 87 % 90 % 0 % 1030,8 hPa 0,0 l/m 0,0 km/h (0 Bft) N 0,00 h 0,0 UV-I 0,8 C 1,9 C 0,0 km/h (0 Bft)
13.11.2013 19:00 1,3 C 16,4 C 1,8 C 1,1 C 0,6 C 0,0 C 87 % 90 % 0 % 1031,1 hPa 0,0 l/m 0,0 km/h (0 Bft) N 0,00 h 0,0 UV-I -0,6 C 0,6 C 0,0 km/h (0 Bft)
13.11.2013 20:00 0,2 C 16,4 C 1,1 C -0,1 C -0,6 C 0,0 C 88 % 90 % 0 % 1030,9 hPa 0,0 l/m 0,0 km/h (0 Bft) N 0,00 h 0,0 UV-I -1,6 C -0,6 C 0,0 km/h (0 Bft)
13.11.2013 21:00 -0,9 C 16,3 C 0,3 C -1,1 C -1,6 C 0,0 C 88 % 91 % 0 % 1030,9 hPa 0,0 l/m 0,0 km/h (0 Bft) N 0,00 h 0,0 UV-I -2,6 C -1,6 C 0,0 km/h (0 Bft)
13.11.2013 22:00 -1,3 C 16,2 C 0,3 C -0,9 C -1,0 C 0,4 C 89 % 91 % 0 % 1030,7 hPa 0,0 l/m 0,0 km/h (0 Bft) N 0,00 h 0,0 UV-I -2,8 C -1,0 C 0,0 km/h (0 Bft)
13.11.2013 23:00 -1,5 C 16,1 C -0,2 C -1,6 C -1,8 C 0,0 C 90 % 91 % 0 % 1029,9 hPa 0,0 l/m 0,0 km/h (0 Bft) N 0,00 h 0,0 UV-I -2,9 C -1,8 C 0,0 km/h (0 Bft)
14.11.2013 00:00 -1,3 C 16,0 C -0,2 C -1,3 C -1,4 C 0,1 C 90 % 91 % 0 % 1029,7 hPa 0,0 l/m 0,0 km/h (0 Bft) N 0,00 h 0,0 UV-I -2,8 C -1,4 C 0,0 km/h (0 Bft)
14.11.2013 01:00 -1,0 C 15,9 C 0,5 C -0,5 C -0,5 C 0,5 C 90 % 91 % 0 % 1029,1 hPa 0,0 l/m 0,0 km/h (0 Bft) N 0,00 h 0,0 UV-I -2,5 C -0,5 C 0,0 km/h (0 Bft)
14.11.2013 02:00 -0,7 C 15,8 C 1,1 C -0,1 C -0,1 C 0,7 C 90 % 91 % 0 % 1028,7 hPa 0,0 l/m 0,0 km/h (0 Bft) N 0,00 h 0,0 UV-I -2,1 C -0,1 C 0,0 km/h (0 Bft)
14.11.2013 03:00 -0,5 C 15,8 C 0,5 C -0,4 C -0,6 C 0,1 C 91 % 91 % 0 % 1028,4 hPa 0,0 l/m 0,0 km/h (0 Bft) N 0,00 h 0,0 UV-I -1,8 C -0,6 C 0,0 km/h (0 Bft)
14.11.2013 04:00 -1,0 C 15,7 C -0,3 C -1,3 C -1,8 C 0,0 C 90 % 91 % 0 % 1027,6 hPa 0,0 l/m 0,0 km/h (0 Bft) N 0,00 h 0,0 UV-I -2,5 C -1,8 C 0,0 km/h (0 Bft)
14.11.2013 05:00 -1,9 C 15,6 C -0,9 C -2,1 C -2,6 C 0,0 C 90 % 91 % 0 % 1027,2 hPa 0,0 l/m 0,0 km/h (0 Bft) N 0,00 h 0,0 UV-I -3,3 C -2,6 C 0,0 km/h (0 Bft)
14.11.2013 06:00 -2,7 C 15,5 C -1,5 C -2,9 C -3,3 C 0,0 C 90 % 91 % 0 % 1026,7 hPa 0,0 l/m 0,0 km/h (0 Bft) N 0,00 h 0,0 UV-I -4,1 C -3,3 C 0,0 km/h (0 Bft)
14.11.2013 07:00 -3,4 C 15,4 C -2,0 C -3,6 C -3,9 C 0,0 C 90 % 91 % 0 % 1026,0 hPa 0,0 l/m 0,0 km/h (0 Bft) N 0,00 h 0,0 UV-I -4,8 C -3,9 C 0,0 km/h (0 Bft)
14.11.2013 08:00 -3,3 C 15,2 C -1,7 C -2,9 C -2,9 C 0,4 C 91 % 91 % 11 % 1025,6 hPa 0,0 l/m 0,0 km/h (0 Bft) N 0,00 h 0,0 UV-I -4,6 C -2,9 C 0,0 km/h (0 Bft)
14.11.2013 09:00 -2,2 C 15,1 C -0,6 C -1,0 C -1,0 C 1,2 C 91 % 91 % 32 % 1024,6 hPa 0,0 l/m 0,0 km/h (0 Bft) N 0,00 h 0,0 UV-I -3,5 C -1,0 C 0,0 km/h (0 Bft)
14.11.2013 10:00 0,1 C 15,0 C 1,3 C 2,4 C 2,4 C 2,3 C 92 % 91 % 61 % 1023,9 hPa 0,0 l/m 0,1 km/h (0 Bft) N 0,08 h 0,0 UV-I -1,1 C 2,4 C 0,0 km/h (0 Bft)
14.11.2013 11:00 2,6 C 14,7 C 3,5 C 6,7 C 6,7 C 4,1 C 93 % 91 % 90 % 1023,5 hPa 0,0 l/m 0,8 km/h (0 Bft) S-SW 0,67 h 0,0 UV-I 1,5 C 6,7 C 1,8 km/h (1 Bft)
14.11.2013 12:00 4,6 C 14,7 C 5,0 C 7,4 C 7,4 C 2,8 C 88 % 91 % 75 % 1022,8 hPa 0,0 l/m 1,2 km/h (1 Bft) S-SO 0,00 h 0,0 UV-I 2,8 C 7,4 C 2,0 km/h (1 Bft)
14.11.2013 13:00 6,2 C 14,7 C 6,2 C 8,3 C 8,3 C 2,0 C 81 % 90 % 54 % 1022,2 hPa 0,0 l/m 3,0 km/h (1 Bft) SW 0,00 h 0,0 UV-I 3,1 C 8,2 C 4,0 km/h (1 Bft)
14.11.2013 14:00 6,0 C 14,8 C 6,1 C 6,9 C 6,9 C 0,9 C 79 % 90 % 23 % 1022,3 hPa 0,0 l/m 3,1 km/h (1 Bft) W-SW 0,00 h 0,0 UV-I 2,7 C 6,9 C 3,9 km/h (1 Bft)
14.11.2013 15:00 5,3 C 14,9 C 5,3 C 5,5 C 5,4 C 0,2 C 80 % 89 % 4 % 1021,8 hPa 0,0 l/m 3,0 km/h (1 Bft) W-SW 0,00 h 0,0 UV-I 2,1 C 5,4 C 4,2 km/h (1 Bft)
14.11.2013 16:00 4,5 C 14,9 C 4,3 C 4,3 C 4,1 C 0,0 C 81 % 88 % 0 % 1021,9 hPa 0,0 l/m 1,2 km/h (1 Bft) W-SW 0,00 h 0,0 UV-I 1,5 C 4,1 C 2,2 km/h (1 Bft)
14.11.2013 17:00 3,7 C 15,0 C 3,6 C 3,5 C 3,1 C 0,0 C 82 % 88 % 0 % 1021,6 hPa 0,0 l/m 0,1 km/h (0 Bft) N 0,00 h 0,0 UV-I 0,9 C 3,1 C 0,0 km/h (0 Bft)
14.11.2013 18:00 3,0 C 15,1 C 3,3 C 3,0 C 2,8 C 0,0 C 84 % 88 % 0 % 1021,7 hPa 0,0 l/m 0,0 km/h (0 Bft) N 0,00 h 0,0 UV-I 0,6 C 2,8 C 0,0 km/h (0 Bft)
14.11.2013 19:00 2,5 C 15,2 C 3,2 C 2,5 C 2,4 C 0,0 C 85 % 89 % 0 % 1021,7 hPa 0,0 l/m 0,0 km/h (0 Bft) N 0,00 h 0,0 UV-I 0,3 C 2,4 C 0,0 km/h (0 Bft)
14.11.2013 20:00 2,1 C 15,2 C 3,2 C 2,5 C 2,5 C 0,4 C 86 % 89 % 0 % 1022,1 hPa 0,0 l/m 0,0 km/h (0 Bft) N 0,00 h 0,0 UV-I 0,1 C 2,5 C 0,0 km/h (0 Bft)
14.11.2013 21:00 2,0 C 15,3 C 3,2 C 2,6 C 2,6 C 0,5 C 87 % 89 % 0 % 1022,4 hPa 0,0 l/m 0,0 km/h (0 Bft) N 0,00 h 0,0 UV-I 0,2 C 2,6 C 0,0 km/h (0 Bft)
14.11.2013 22:00 1,9 C 15,3 C 3,2 C 2,5 C 2,5 C 0,6 C 88 % 89 % 0 % 1022,5 hPa 0,0 l/m 0,0 km/h (0 Bft) N 0,00 h 0,0 UV-I 0,1 C 2,5 C 0,0 km/h (0 Bft)
14.11.2013 23:00 1,6 C 15,3 C 2,6 C 1,8 C 1,6 C 0,2 C 88 % 89 % 0 % 1022,5 hPa 0,0 l/m 0,0 km/h (0 Bft) N 0,00 h 0,0 UV-I -0,1 C 1,6 C 0,0 km/h (0 Bft)
15.11.2013 00:00 0,5 C 15,4 C 1,0 C 0,1 C -0,6 C 0,0 C 87 % 89 % 0 % 1022,7 hPa 0,0 l/m 0,0 km/h (0 Bft) N 0,00 h 0,0 UV-I -1,4 C -0,6 C 0,0 km/h (0 Bft)
15.11.2013 01:00 -0,6 C 15,4 C 0,4 C -0,7 C -1,0 C 0,0 C 88 % 89 % 0 % 1023,2 hPa 0,0 l/m 0,0 km/h (0 Bft) N 0,00 h 0,0 UV-I -2,3 C -1,0 C 0,0 km/h (0 Bft)
15.11.2013 02:00 -0,8 C 15,4 C 0,8 C -0,5 C -0,5 C 0,3 C 89 % 89 % 0 % 1023,7 hPa 0,0 l/m 0,0 km/h (0 Bft) N 0,00 h 0,0 UV-I -2,4 C -0,5 C 0,0 km/h (0 Bft)
15.11.2013 03:00 -0,6 C 15,4 C 1,0 C -0,1 C -0,1 C 0,5 C 90 % 90 % 0 % 1024,5 hPa 0,0 l/m 0,0 km/h (0 Bft) N 0,00 h 0,0 UV-I -2,0 C -0,1 C 0,0 km/h (0 Bft)
15.11.2013 04:00 -0,4 C 15,3 C 1,2 C 0,1 C 0,1 C 0,5 C 90 % 90 % 0 % 1024,9 hPa 0,0 l/m 0,0 km/h (0 Bft) N 0,00 h 0,0 UV-I -1,8 C 0,1 C 0,0 km/h (0 Bft)
15.11.2013 05:00 -0,3 C 15,3 C 1,3 C 0,3 C 0,3 C 0,6 C 90 % 90 % 0 % 1025,4 hPa 0,0 l/m 0,0 km/h (0 Bft) N 0,00 h 0,0 UV-I -1,7 C 0,3 C 0,0 km/h (0 Bft)
15.11.2013 06:00 -0,2 C 15,2 C 1,4 C 0,3 C 0,3 C 0,5 C 91 % 90 % 0 % 1025,6 hPa 0,0 l/m 0,0 km/h (0 Bft) N 0,00 h 0,0 UV-I -1,5 C 0,3 C 0,0 km/h (0 Bft)
15.11.2013 07:00 -0,2 C 15,2 C 1,4 C 0,1 C 0,1 C 0,3 C 91 % 90 % 2 % 1026,2 hPa 0,0 l/m 0,0 km/h (0 Bft) N 0,08 h 0,0 UV-I -1,5 C 0,1 C 0,0 km/h (0 Bft)
15.11.2013 08:00 -0,1 C 15,1 C 1,7 C 0,7 C 0,7 C 0,8 C 91 % 90 % 21 % 1027,3 hPa 0,0 l/m 0,0 km/h (0 Bft) N 0,00 h 0,0 UV-I -1,4 C 0,7 C 0,0 km/h (0 Bft)
15.11.2013 09:00 0,6 C 15,0 C 2,5 C 1,9 C 1,9 C 1,3 C 91 % 90 % 34 % 1028,0 hPa 0,0 l/m 0,0 km/h (0 Bft) N 0,00 h 0,0 UV-I -0,7 C 1,9 C 0,0 km/h (0 Bft)
15.11.2013 10:00 1,5 C 14,9 C 3,6 C 3,9 C 3,9 C 2,4 C 91 % 89 % 64 % 1028,1 hPa 0,0 l/m 0,6 km/h (0 Bft) N 0,00 h 0,0 UV-I 0,2 C 3,9 C 1,3 km/h (1 Bft)
15.11.2013 11:00 2,6 C 14,8 C 4,7 C 6,1 C 6,1 C 3,5 C 90 % 88 % 91 % 1028,7 hPa 0,0 l/m 0,9 km/h (0 Bft) O-SO 0,75 h 0,0 UV-I 1,2 C 6,1 C 1,4 km/h (1 Bft)
15.11.2013 12:00 3,7 C 14,8 C 5,5 C 6,6 C 6,6 C 2,9 C 88 % 87 % 76 % 1028,8 hPa 0,0 l/m 1,8 km/h (1 Bft) N-NO 0,33 h 0,0 UV-I 1,9 C 6,6 C 3,4 km/h (1 Bft)
15.11.2013 13:00 4,4 C 14,9 C 5,5 C 6,1 C 6,1 C 1,7 C 87 % 86 % 44 % 1029,1 hPa 0,0 l/m 1,7 km/h (1 Bft) O-NO 0,00 h 0,0 UV-I 2,3 C 6,1 C 2,2 km/h (1 Bft)
15.11.2013 14:00 4,4 C 14,9 C 5,2 C 5,4 C 5,4 C 1,0 C 85 % 85 % 25 % 1029,2 hPa 0,0 l/m 3,3 km/h (1 Bft) O-NO 0,00 h 0,0 UV-I 2,1 C 5,4 C 4,0 km/h (1 Bft)
15.11.2013 15:00 3,9 C 15,0 C 4,6 C 4,5 C 4,5 C 0,7 C 85 % 85 % 18 % 1029,8 hPa 0,0 l/m 1,5 km/h (1 Bft) O-NO 0,17 h 0,0 UV-I 1,6 C 4,5 C 2,3 km/h (1 Bft)
15.11.2013 16:00 3,2 C 15,1 C 4,1 C 3,8 C 3,8 C 0,6 C 87 % 86 % 1 % 1030,3 hPa 0,0 l/m 1,3 km/h (1 Bft) O-NO 0,08 h 0,0 UV-I 1,3 C 3,8 C 1,6 km/h (1 Bft)
15.11.2013 17:00 2,6 C 15,2 C 3,6 C 3,3 C 3,3 C 0,7 C 88 % 86 % 0 % 1031,2 hPa 0,0 l/m 1,2 km/h (1 Bft) O-NO 0,00 h 0,0 UV-I 0,8 C 3,3 C 2,0 km/h (1 Bft)
15.11.2013 18:00 2,3 C 15,2 C 3,3 C 3,0 C 3,0 C 0,8 C 88 % 87 % 0 % 1031,5 hPa 0,0 l/m 1,3 km/h (1 Bft) NO 0,00 h 0,0 UV-I 0,6 C 3,0 C 2,1 km/h (1 Bft)
15.11.2013 19:00 2,1 C 15,2 C 3,2 C 2,8 C 2,8 C 0,8 C 88 % 87 % 0 % 1031,6 hPa 0,0 l/m 1,4 km/h (1 Bft) O 0,00 h 0,0 UV-I 0,3 C 2,8 C 2,0 km/h (1 Bft)
15.11.2013 20:00 2,0 C 15,2 C 3,2 C 2,8 C 2,8 C 0,8 C 88 % 87 % 0 % 1031,8 hPa 0,0 l/m 1,8 km/h (1 Bft) O 0,00 h 0,0 UV-I 0,2 C 2,8 C 2,0 km/h (1 Bft)
15.11.2013 21:00 2,0 C 15,2 C 3,1 C 2,7 C 2,7 C 0,7 C 88 % 87 % 0 % 1031,9 hPa 0,0 l/m 0,7 km/h (0 Bft) O-NO 0,00 h 0,0 UV-I 0,2 C 2,7 C 0,9 km/h (0 Bft)
15.11.2013 22:00 1,9 C 15,2 C 3,0 C 2,6 C 2,6 C 0,7 C 88 % 86 % 0 % 1031,9 hPa 0,0 l/m 0,7 km/h (0 Bft) NW 0,00 h 0,0 UV-I 0,1 C 2,6 C 0,8 km/h (0 Bft)
15.11.2013 23:00 1,9 C 15,1 C 3,0 C 2,6 C 2,6 C 0,7 C 88 % 86 % 0 % 1032,1 hPa 0,0 l/m 0,7 km/h (0 Bft) NO 0,00 h 0,0 UV-I 0,1 C 2,6 C 1,1 km/h (1 Bft)
16.11.2013 00:00 2,0 C 15,1 C 3,0 C 2,6 C 2,6 C 0,6 C 88 % 86 % 0 % 1032,4 hPa 0,0 l/m 0,5 km/h (0 Bft) N-NO 0,00 h 0,0 UV-I 0,2 C 2,6 C 1,6 km/h (1 Bft)
16.11.2013 01:00 2,0 C 15,1 C 2,9 C 2,5 C 2,5 C 0,6 C 88 % 86 % 0 % 1032,5 hPa 0,0 l/m 0,4 km/h (0 Bft) N-NO 0,00 h 0,0 UV-I 0,2 C 2,5 C 0,3 km/h (0 Bft)
16.11.2013 02:00 1,9 C 15,1 C 2,9 C 2,5 C 2,5 C 0,6 C 88 % 86 % 0 % 1032,5 hPa 0,0 l/m 0,2 km/h (0 Bft) N 0,00 h 0,0 UV-I 0,1 C 2,5 C 0,2 km/h (0 Bft)
16.11.2013 03:00 1,9 C 15,1 C 2,8 C 2,4 C 2,4 C 0,5 C 88 % 86 % 0 % 1032,7 hPa 0,0 l/m 0,2 km/h (0 Bft) N 0,00 h 0,0 UV-I 0,1 C 2,4 C 0,1 km/h (0 Bft)
16.11.2013 04:00 1,7 C 15,1 C 2,8 C 2,4 C 2,4 C 0,7 C 88 % 86 % 0 % 1033,2 hPa 0,0 l/m 0,0 km/h (0 Bft) N 0,00 h 0,0 UV-I -0,0 C 2,4 C 0,0 km/h (0 Bft)
16.11.2013 05:00 1,7 C 15,1 C 2,9 C 2,3 C 2,3 C 0,7 C 88 % 87 % 0 % 1032,8 hPa 0,0 l/m 0,2 km/h (0 Bft) N 0,00 h 0,0 UV-I -0,1 C 2,3 C 0,2 km/h (0 Bft)
16.11.2013 06:00 1,6 C 15,1 C 2,9 C 2,4 C 2,4 C 0,8 C 88 % 87 % 0 % 1032,8 hPa 0,0 l/m 0,1 km/h (0 Bft) N 0,00 h 0,0 UV-I -0,1 C 2,4 C 0,3 km/h (0 Bft)
16.11.2013 07:00 1,7 C 15,1 C 3,1 C 2,5 C 2,5 C 0,8 C 89 % 87 % 8 % 1032,9 hPa 0,0 l/m 0,4 km/h (0 Bft) W 0,33 h 0,0 UV-I 0,1 C 2,5 C 1,0 km/h (0 Bft)
16.11.2013 08:00 2,0 C 15,0 C 3,3 C 2,8 C 2,8 C 0,8 C 88 % 87 % 21 % 1033,2 hPa 0,0 l/m 2,5 km/h (1 Bft) W-SW 0,17 h 0,0 UV-I 0,2 C 2,8 C 4,4 km/h (1 Bft)
16.11.2013 09:00 2,8 C 14,9 C 3,8 C 3,3 C 3,3 C 0,5 C 86 % 85 % 13 % 1033,4 hPa 0,0 l/m 3,8 km/h (1 Bft) W-SW 0,00 h 0,0 UV-I 0,7 C 3,1 C 4,8 km/h (1 Bft)
16.11.2013 10:00 3,7 C 14,8 C 4,6 C 5,0 C 5,0 C 1,4 C 84 % 83 % 36 % 1033,2 hPa 0,0 l/m 3,1 km/h (1 Bft) W-SW 0,00 h 0,0 UV-I 1,2 C 4,7 C 4,4 km/h (1 Bft)
16.11.2013 11:00 4,1 C 14,8 C 5,0 C 5,2 C 5,2 C 1,1 C 83 % 82 % 29 % 1032,9 hPa 0,0 l/m 4,2 km/h (1 Bft) W-SW 0,00 h 0,0 UV-I 1,5 C 4,8 C 5,6 km/h (1 Bft)
16.11.2013 12:00 4,3 C 14,9 C 5,4 C 5,1 C 5,1 C 0,8 C 84 % 82 % 22 % 1032,9 hPa 0,0 l/m 4,6 km/h (1 Bft) W-SW 0,00 h 0,0 UV-I 1,8 C 4,6 C 6,3 km/h (2 Bft)
16.11.2013 13:00 4,7 C 14,9 C 5,6 C 6,1 C 6,1 C 1,3 C 83 % 81 % 36 % 1032,5 hPa 0,0 l/m 2,8 km/h (1 Bft) W-SW 0,00 h 0,0 UV-I 2,1 C 6,1 C 3,8 km/h (1 Bft)
16.11.2013 14:00 4,9 C 15,0 C 5,5 C 6,0 C 6,0 C 1,1 C 83 % 82 % 29 % 1032,2 hPa 0,0 l/m 2,0 km/h (1 Bft) S 0,00 h 0,0 UV-I 2,3 C 6,0 C 2,8 km/h (1 Bft)
16.11.2013 15:00 4,6 C 15,0 C 4,9 C 5,2 C 5,2 C 0,5 C 84 % 83 % 14 % 1030,9 hPa 0,0 l/m 2,5 km/h (1 Bft) S-SO 0,08 h 0,0 UV-I 2,1 C 5,2 C 4,0 km/h (1 Bft)
16.11.2013 16:00 4,2 C 15,1 C 4,5 C 4,3 C 4,3 C 0,1 C 85 % 84 % 1 % 1030,8 hPa 0,0 l/m 1,7 km/h (1 Bft) S-SW 0,00 h 0,0 UV-I 1,9 C 4,3 C 1,6 km/h (1 Bft)
16.11.2013 17:00 3,8 C 15,1 C 4,2 C 3,8 C 3,7 C 0,1 C 86 % 85 % 0 % 1030,8 hPa 0,0 l/m 0,4 km/h (0 Bft) O-SO 0,00 h 0,0 UV-I 1,6 C 3,7 C 1,1 km/h (1 Bft)
16.11.2013 18:00 3,2 C 15,3 C 3,5 C 3,1 C 2,8 C 0,0 C 87 % 85 % 0 % 1030,2 hPa 0,0 l/m 0,4 km/h (0 Bft) SW 0,00 h 0,0 UV-I 1,2 C 2,8 C 0,6 km/h (0 Bft)
16.11.2013 19:00 3,0 C 15,2 C 3,7 C 3,3 C 3,3 C 0,3 C 88 % 86 % 0 % 1029,7 hPa 0,0 l/m 0,3 km/h (0 Bft) N 0,00 h 0,0 UV-I 1,1 C 3,3 C 0,6 km/h (0 Bft)
16.11.2013 20:00 2,9 C 15,2 C 3,9 C 3,6 C 3,6 C 0,7 C 88 % 86 % 0 % 1029,8 hPa 0,0 l/m 0,5 km/h (0 Bft) S-SO 0,00 h 0,0 UV-I 1,1 C 3,6 C 0,8 km/h (0 Bft)
16.11.2013 21:00 2,9 C 15,2 C 4,0 C 3,7 C 3,7 C 0,8 C 88 % 86 % 0 % 1030,1 hPa 0,0 l/m 0,3 km/h (0 Bft) N 0,00 h 0,0 UV-I 1,1 C 3,7 C 0,4 km/h (0 Bft)
16.11.2013 22:00 2,8 C 15,2 C 4,0 C 3,7 C 3,7 C 0,8 C 88 % 86 % 0 % 1029,7 hPa 0,0 l/m 0,9 km/h (0 Bft) SW 0,00 h 0,0 UV-I 1,1 C 3,7 C 1,3 km/h (1 Bft)
16.11.2013 23:00 2,5 C 15,3 C 3,8 C 3,4 C 3,4 C 0,8 C 89 % 86 % 0 % 1029,6 hPa 0,0 l/m 0,8 km/h (0 Bft) SO 0,00 h 0,0 UV-I 0,9 C 3,4 C 1,1 km/h (0 Bft)
17.11.2013 00:00 2,4 C 15,4 C 3,6 C 3,2 C 3,2 C 0,8 C 89 % 86 % 0 % 1029,3 hPa 0,0 l/m 1,3 km/h (1 Bft) W-SW 0,00 h 0,0 UV-I 0,7 C 3,2 C 2,0 km/h (1 Bft)
17.11.2013 01:00 2,0 C 15,5 C 3,3 C 2,7 C 2,7 C 0,7 C 89 % 87 % 0 % 1028,9 hPa 0,0 l/m 0,5 km/h (0 Bft) NO 0,00 h 0,0 UV-I 0,4 C 2,7 C 1,0 km/h (0 Bft)
17.11.2013 02:00 1,9 C 15,5 C 3,3 C 2,8 C 2,8 C 0,8 C 90 % 87 % 0 % 1028,3 hPa 0,0 l/m 0,5 km/h (0 Bft) S 0,00 h 0,0 UV-I 0,5 C 2,8 C 1,1 km/h (1 Bft)
17.11.2013 03:00 1,8 C 15,4 C 3,2 C 2,5 C 2,5 C 0,7 C 90 % 87 % 0 % 1027,9 hPa 0,0 l/m 2,3 km/h (1 Bft) W-SW 0,00 h 0,0 UV-I 0,3 C 2,5 C 3,4 km/h (1 Bft)
17.11.2013 04:00 1,6 C 15,3 C 3,1 C 2,5 C 2,5 C 0,9 C 90 % 87 % 0 % 1027,9 hPa 0,0 l/m 0,3 km/h (0 Bft) N 0,00 h 0,0 UV-I 0,2 C 2,5 C 0,1 km/h (0 Bft)
17.11.2013 05:00 1,7 C 15,3 C 3,2 C 2,6 C 2,6 C 0,9 C 90 % 87 % 0 % 1027,8 hPa 0,0 l/m 0,6 km/h (0 Bft) S 0,00 h 0,0 UV-I 0,2 C 2,6 C 0,4 km/h (0 Bft)
17.11.2013 06:00 1,4 C 15,3 C 2,8 C 2,2 C 2,2 C 0,7 C 90 % 87 % 0 % 1027,7 hPa 0,0 l/m 0,0 km/h (0 Bft) N 0,00 h 0,0 UV-I -0,0 C 2,2 C 0,0 km/h (0 Bft)
17.11.2013 07:00 1,1 C 15,3 C 2,5 C 1,8 C 1,8 C 0,7 C 90 % 87 % 6 % 1028,2 hPa 0,0 l/m 1,1 km/h (0 Bft) O-NO 0,25 h 0,0 UV-I -0,4 C 1,8 C 1,5 km/h (1 Bft)
17.11.2013 08:00 1,0 C 15,3 C 2,5 C 1,9 C 1,9 C 0,9 C 91 % 87 % 25 % 1028,7 hPa 0,0 l/m 0,3 km/h (0 Bft) N 0,33 h 0,0 UV-I -0,3 C 1,9 C 0,3 km/h (0 Bft)
17.11.2013 09:00 1,2 C 15,3 C 2,8 C 2,5 C 2,5 C 1,3 C 91 % 87 % 35 % 1028,3 hPa 0,0 l/m 0,1 km/h (0 Bft) N 0,00 h 0,0 UV-I -0,1 C 2,5 C 0,0 km/h (0 Bft)
17.11.2013 10:00 1,6 C 15,3 C 3,3 C 3,2 C 3,2 C 1,7 C 91 % 87 % 44 % 1027,9 hPa 0,0 l/m 0,0 km/h (0 Bft) N 0,00 h 0,0 UV-I 0,3 C 3,2 C 0,0 km/h (0 Bft)
17.11.2013 11:00 2,4 C 15,0 C 4,5 C 5,1 C 5,1 C 2,7 C 92 % 87 % 71 % 1027,5 hPa 0,0 l/m 0,7 km/h (0 Bft) O-NO 0,00 h 0,0 UV-I 1,2 C 5,1 C 0,9 km/h (0 Bft)
17.11.2013 12:00 3,2 C 14,9 C 5,2 C 6,0 C 6,0 C 2,8 C 91 % 85 % 75 % 1027,2 hPa 0,0 l/m 0,5 km/h (0 Bft) N 0,00 h 0,0 UV-I 1,8 C 6,0 C 1,2 km/h (1 Bft)
17.11.2013 13:00 3,9 C 14,9 C 5,7 C 6,4 C 6,4 C 2,5 C 89 % 85 % 65 % 1026,6 hPa 0,0 l/m 1,3 km/h (1 Bft) NO 0,00 h 0,0 UV-I 2,3 C 6,4 C 2,3 km/h (1 Bft)
17.11.2013 14:00 4,6 C 15,0 C 5,9 C 6,7 C 6,7 C 2,0 C 88 % 84 % 54 % 1025,9 hPa 0,0 l/m 0,6 km/h (0 Bft) N-NW 0,00 h 0,0 UV-I 2,7 C 6,7 C 0,7 km/h (0 Bft)
17.11.2013 15:00 5,4 C 15,0 C 6,1 C 6,3 C 6,3 C 0,9 C 86 % 83 % 24 % 1025,9 hPa 0,0 l/m 3,1 km/h (1 Bft) O-NO 0,17 h 0,0 UV-I 3,2 C 6,3 C 4,2 km/h (1 Bft)
17.11.2013 16:00 5,2 C 15,1 C 5,5 C 5,5 C 5,5 C 0,4 C 86 % 84 % 2 % 1025,3 hPa 0,0 l/m 1,9 km/h (1 Bft) O-NO 0,17 h 0,0 UV-I 3,0 C 5,5 C 2,0 km/h (1 Bft)
17.11.2013 17:00 4,4 C 15,2 C 4,5 C 4,3 C 4,2 C 0,0 C 86 % 85 % 0 % 1024,8 hPa 0,0 l/m 0,2 km/h (0 Bft) N 0,00 h 0,0 UV-I 2,3 C 4,2 C 0,1 km/h (0 Bft)
17.11.2013 18:00 3,6 C 15,4 C 4,1 C 3,7 C 3,7 C 0,1 C 87 % 85 % 0 % 1024,0 hPa 0,0 l/m 0,1 km/h (0 Bft) N 0,00 h 0,0 UV-I 1,7 C 3,7 C 0,0 km/h (0 Bft)
17.11.2013 19:00 3,1 C 15,4 C 4,0 C 3,6 C 3,6 C 0,4 C 88 % 86 % 0 % 1022,9 hPa 0,0 l/m 0,0 km/h (0 Bft) N 0,00 h 0,0 UV-I 1,3 C 3,6 C 0,0 km/h (0 Bft)
17.11.2013 20:00 2,7 C 15,4 C 3,7 C 3,1 C 3,1 C 0,4 C 89 % 86 % 0 % 1022,8 hPa 0,0 l/m 0,1 km/h (0 Bft) N 0,00 h 0,0 UV-I 1,0 C 3,1 C 0,2 km/h (0 Bft)
17.11.2013 21:00 2,4 C 15,4 C 3,6 C 3,1 C 3,1 C 0,7 C 89 % 87 % 0 % 1022,2 hPa 0,0 l/m 0,1 km/h (0 Bft) N 0,00 h 0,0 UV-I 0,8 C 3,1 C 0,0 km/h (0 Bft)
17.11.2013 22:00 2,4 C 15,4 C 3,5 C 3,1 C 3,1 C 0,6 C 89 % 87 % 0 % 1021,8 hPa 0,0 l/m 0,5 km/h (0 Bft) NO 0,00 h 0,0 UV-I 0,8 C 3,1 C 0,8 km/h (0 Bft)
17.11.2013 23:00 2,3 C 15,4 C 3,5 C 3,0 C 3,0 C 0,6 C 89 % 87 % 0 % 1020,8 hPa 0,0 l/m 0,9 km/h (0 Bft) O-NO 0,00 h 0,0 UV-I 0,7 C 3,0 C 1,4 km/h (1 Bft)
Min-Datum _ 12.11.13 14.11.13 12.11.13 12.11.13 12.11.13 11.11.13 12.11.13 16.11.13 11.11.13 11.11.13 - 11.11.13 - - 11.11.13 12.11.13 12.11.13 11.11.13
_ Min-Zeit 07:25 11:40 06:51 07:30 07:30 00:00 15:00 13:02 00:00 00:00 - 05:20 - - 00:00 07:25 07:30 00:05
Minimum _ -4,5 C 14,6 C -2,9 C -4,7 C -5,0 C 0,0 C 67 % 81 % 0 % 1019,0 hPa - 0,0 km/h (0 Bft) - - 0,0 UV-I -6,0 C -5,0 C 0,0 km/h (0 Bft)
Max-Datum _ 12.11.13 11.11.13 11.11.13 12.11.13 12.11.13 12.11.13 14.11.13 13.11.13 12.11.13 16.11.13 11.11.13 16.11.13 - 12.11.13 11.11.13 13.11.13 12.11.13 11.11.13
_ Max-Zeit 14:45 00:00 14:10 14:55 14:55 11:10 10:50 07:25 11:00 04:30 06:00 10:10 - 10:55 00:00 14:35 14:55 11:20
Maximum _ 8,5 C 17,4 C 8,4 C 12,3 C 12,3 C 6,6 C 93 % 91 % 100 % 1033,6 hPa 0,7 l/m 6,1 km/h
W-SW (2 Bft)
- 0,08 h 0,0 UV-I 5,9 C 12,3 C 12,7 km/h
SW (3 Bft)
Durchschnitt _ 2,2 C 15,6 C 3,1 C 2,9 C 2,8 C 0,8 C 87 % 88 % 14 % 1028,3 hPa #2,7 l/m 0,9 km/h (0 Bft) W-SW #7:20 h 0,0 UV-I 0,3 C 2,8 C 1,2 km/h (1 Bft)
2013 www.wetterstation-wechselburg.de